Time;durP1;ratioP1;P1;durP2;ratioP2;P2;SDS_P1;SDS_P2;PMS_P1;PMS_P2;Temp;Humidity;BMP_temperature;BMP_pressure;BME280_temperature;BME280_humidity;BME280_pressure;Samples;Min_cycle;Max_cycle;Signal;HPM_P1;HPM_P2
2022/01/28 00:01:55;;;;;;;7.22;1.80;;;17.00;51.50;;;;;;4988998;28;101197;-69
2022/01/28 00:04:20;;;;;;;7.80;1.88;;;16.90;51.50;;;;;;4988413;28;100658;-69
2022/01/28 00:06:46;;;;;;;6.47;2.10;;;17.00;51.40;;;;;;4989514;28;98706;-69
2022/01/28 00:09:12;;;;;;;6.57;2.10;;;16.90;51.40;;;;;;4989905;28;98807;-70
2022/01/28 00:11:38;;;;;;;7.25;1.98;;;16.90;51.40;;;;;;4989824;28;98987;-69
2022/01/28 00:14:17;;;;;;;6.10;1.58;;;16.90;51.40;;;;;;4989030;28;100247;-69
2022/01/28 00:38:54;;;;;;;4.93;1.60;;;16.80;51.40;;;;;;4988329;28;99133;-69
2022/01/28 00:41:20;;;;;;;7.47;1.80;;;16.80;51.40;;;;;;4988377;28;99214;-70
2022/01/28 00:43:45;;;;;;;5.82;1.85;;;16.80;51.30;;;;;;4987314;28;99108;-69
2022/01/28 00:46:11;;;;;;;8.55;2.25;;;16.80;51.40;;;;;;4988234;28;99662;-69
2022/01/28 00:48:37;;;;;;;6.03;1.70;;;16.80;51.30;;;;;;4988846;28;98615;-71
2022/01/28 00:51:03;;;;;;;5.57;1.55;;;16.80;51.30;;;;;;4989234;28;98575;-69
2022/01/28 00:53:29;;;;;;;5.97;1.83;;;16.80;51.30;;;;;;4988633;28;100454;-70
2022/01/28 00:55:55;;;;;;;6.57;2.00;;;16.80;51.30;;;;;;4988581;28;99390;-69
2022/01/28 00:58:21;;;;;;;6.18;1.88;;;16.80;51.30;;;;;;4987828;28;98645;-69
2022/01/28 01:00:47;;;;;;;6.78;2.00;;;16.80;51.20;;;;;;4989292;28;99034;-69
2022/01/28 01:03:13;;;;;;;4.80;1.90;;;16.70;51.20;;;;;;4987736;28;99062;-71
2022/01/28 01:05:39;;;;;;;5.90;1.48;;;16.80;51.20;;;;;;4988226;28;99859;-69
2022/01/28 01:08:06;;;;;;;7.72;1.92;;;16.70;51.20;;;;;;4989675;28;99128;-69
2022/01/28 01:10:32;;;;;;;4.45;1.48;;;16.70;51.10;;;;;;4989475;28;98370;-69
2022/01/28 01:12:59;;;;;;;6.35;2.13;;;16.70;51.10;;;;;;4989443;28;99745;-70
2022/01/28 01:15:29;;;;;;;5.75;1.80;;;16.70;51.20;;;;;;4989251;28;99977;-69
2022/01/28 01:18:12;;;;;;;5.68;1.50;;;16.70;51.20;;;;;;4989496;28;99370;-69
2022/01/28 01:23:13;;;;;;;6.93;1.60;;;16.70;51.10;;;;;;4987460;28;99023;-69
2022/01/28 01:25:58;;;;;;;5.95;1.90;;;16.60;51.10;;;;;;4988536;28;99883;-69
2022/01/28 01:28:30;;;;;;;7.28;1.90;;;16.70;51.10;;;;;;4987858;28;98653;-70
2022/01/28 01:30:57;;;;;;;7.68;1.70;;;16.70;51.10;;;;;;4988869;28;99104;-69
2022/01/28 01:33:23;;;;;;;5.80;1.80;;;16.70;51.10;;;;;;4987531;28;100727;-69
2022/01/28 01:35:50;;;;;;;7.32;2.00;;;16.70;51.10;;;;;;4987925;28;99232;-69
2022/01/28 01:38:15;;;;;;;4.95;1.70;;;16.60;51.00;;;;;;4987878;28;99373;-69
2022/01/28 01:40:52;;;;;;;7.95;1.80;;;16.60;51.00;;;;;;4988021;28;98634;-70
2022/01/28 01:53:53;;;;;;;4.47;1.60;;;16.70;50.90;;;;;;4987461;28;98771;-69
2022/01/28 01:56:21;;;;;;;4.93;1.48;;;16.70;50.90;;;;;;4986695;28;100252;-69
2022/01/28 01:58:47;;;;;;;6.20;1.55;;;16.70;50.90;;;;;;4989068;28;98650;-69
2022/01/28 02:01:13;;;;;;;5.15;1.60;;;16.70;50.90;;;;;;4988187;28;97937;-69
2022/01/28 02:03:39;;;;;;;7.63;1.73;;;16.70;50.80;;;;;;4988274;28;99712;-68
2022/01/28 02:06:05;;;;;;;6.43;1.85;;;16.70;51.70;;;;;;4987701;28;99513;-69
2022/01/28 02:08:32;;;;;;;6.75;1.73;;;16.70;50.80;;;;;;4987638;28;99782;-69
2022/01/28 02:10:59;;;;;;;5.30;2.00;;;16.70;50.70;;;;;;4987625;28;98905;-69
2022/01/28 02:13:26;;;;;;;6.93;1.95;;;16.70;50.70;;;;;;4988171;28;99604;-69
2022/01/28 02:15:53;;;;;;;4.32;1.48;;;16.70;50.60;;;;;;4987210;28;100477;-69
2022/01/28 02:18:22;;;;;;;5.05;1.70;;;16.70;50.60;;;;;;4987999;28;98676;-69
2022/01/28 02:20:52;;;;;;;6.25;1.90;;;16.80;50.60;;;;;;4988310;28;98930;-70
2022/01/28 02:23:20;;;;;;;4.63;1.42;;;16.70;50.50;;;;;;4987730;28;99541;-69
2022/01/28 02:25:51;;;;;;;5.82;1.88;;;16.80;50.60;;;;;;4988872;28;99615;-69
2022/01/28 02:28:20;;;;;;;4.40;1.42;;;16.80;50.50;;;;;;4987855;28;99377;-69
2022/01/28 02:30:46;;;;;;;5.13;1.50;;;16.80;50.40;;;;;;4988905;28;98973;-70
2022/01/28 02:33:24;;;;;;;5.28;1.50;;;16.80;50.40;;;;;;4987359;28;100901;-69
2022/01/28 02:35:51;;;;;;;4.80;1.67;;;16.80;50.40;;;;;;4987258;28;100705;-70
2022/01/28 02:38:23;;;;;;;6.45;1.80;;;16.80;50.30;;;;;;4987591;28;98630;-69
2022/01/28 02:40:56;;;;;;;4.90;1.60;;;16.80;50.20;;;;;;4970012;28;99070;-69
2022/01/28 02:45:56;;;;;;;5.15;1.88;;;16.80;50.20;;;;;;4986338;28;99133;-68
2022/01/28 02:48:28;;;;;;;5.22;1.65;;;16.80;50.20;;;;;;4988543;28;98640;-69
2022/01/28 02:53:36;;;;;;;5.43;1.45;;;16.80;50.00;;;;;;4992107;28;99078;-69
2022/01/28 02:56:10;;;;;;;5.35;1.55;;;16.80;50.00;;;;;;4993536;28;100551;-69
2022/01/28 02:58:36;;;;;;;5.00;1.35;;;16.80;50.00;;;;;;4993124;28;99439;-69
2022/01/28 03:01:02;;;;;;;5.68;1.65;;;16.80;50.00;;;;;;4994626;28;98562;-69
2022/01/28 03:03:27;;;;;;;5.28;1.55;;;16.80;49.90;;;;;;4993754;28;99797;-69
2022/01/28 03:05:53;;;;;;;6.03;1.95;;;16.80;49.90;;;;;;4994721;28;99211;-69
2022/01/28 03:08:28;;;;;;;4.03;1.40;;;16.90;49.80;;;;;;4993923;28;98681;-69
2022/01/28 03:17:04;;;;;;;5.03;1.23;;;16.90;49.70;;;;;;4874091;28;98701;-69
2022/01/28 03:19:43;;;;;;;5.35;1.60;;;16.90;50.00;;;;;;4987949;28;99150;-69
2022/01/28 03:22:09;;;;;;;4.57;1.40;;;16.90;49.60;;;;;;4976191;28;98991;-69
2022/01/28 03:24:34;;;;;;;4.43;1.30;;;16.90;50.50;;;;;;4975903;28;101912;-69
2022/01/28 03:27:07;;;;;;;4.38;1.50;;;16.90;49.50;;;;;;4995090;28;99583;-69
2022/01/28 03:29:33;;;;;;;4.40;1.30;;;16.90;49.50;;;;;;4996096;28;98821;-70
2022/01/28 03:32:00;;;;;;;5.13;1.33;;;16.90;49.50;;;;;;4995861;28;99251;-69
2022/01/28 03:34:25;;;;;;;3.28;1.20;;;16.90;49.50;;;;;;4994749;28;103310;-69
2022/01/28 03:36:52;;;;;;;7.75;1.70;;;16.90;49.50;;;;;;4993702;28;98830;-69
2022/01/28 03:39:18;;;;;;;5.00;1.40;;;16.90;49.50;;;;;;4994371;28;99000;-69
2022/01/28 03:41:45;;;;;;;6.50;1.50;;;16.90;49.50;;;;;;4995491;28;98300;-69
2022/01/28 03:44:10;;;;;;;5.32;1.73;;;16.90;49.50;;;;;;4992662;28;113148;-69
2022/01/28 03:46:37;;;;;;;5.38;1.73;;;16.90;49.50;;;;;;4994914;28;98925;-69
2022/01/28 03:49:03;;;;;;;3.88;1.40;;;16.90;49.50;;;;;;4995236;28;99469;-68
2022/01/28 03:51:31;;;;;;;5.22;1.90;;;16.80;49.50;;;;;;4995431;28;98970;-71
2022/01/28 03:53:57;;;;;;;8.70;1.88;;;16.80;49.50;;;;;;4995288;28;99129;-69
2022/01/28 03:56:24;;;;;;;4.57;1.58;;;16.80;49.50;;;;;;4994584;28;99736;-68
2022/01/28 03:58:50;;;;;;;5.32;1.23;;;16.80;49.50;;;;;;4994898;28;98928;-68
2022/01/28 05:44:23;;;;;;;3.63;1.40;;;18.00;47.00;;;;;;3163084;22;99975;-68
2022/01/28 05:46:51;;;;;;;5.13;1.42;;;17.90;47.00;;;;;;4987793;28;99296;-68
2022/01/28 05:49:17;;;;;;;6.28;1.80;;;17.90;47.00;;;;;;4988320;28;98855;-67
2022/01/28 05:51:43;;;;;;;4.85;1.30;;;17.90;47.00;;;;;;4988834;28;98630;-68
2022/01/28 05:54:09;;;;;;;4.65;1.50;;;17.90;47.00;;;;;;4988222;28;99974;-68
2022/01/28 05:56:36;;;;;;;3.85;1.40;;;17.90;47.00;;;;;;4988493;28;98873;-68
2022/01/28 05:59:02;;;;;;;5.13;1.65;;;17.90;47.00;;;;;;4989310;28;99216;-68
2022/01/28 06:01:28;;;;;;;5.00;1.30;;;17.90;47.10;;;;;;4988725;28;99043;-68
2022/01/28 06:03:54;;;;;;;6.05;1.63;;;17.80;47.00;;;;;;4988069;28;100521;-66
2022/01/28 06:06:22;;;;;;;5.50;1.80;;;17.90;47.10;;;;;;4988152;28;99418;-68
2022/01/28 06:08:54;;;;;;;5.20;1.42;;;17.80;47.00;;;;;;4988617;28;98850;-68
2022/01/28 06:11:20;;;;;;;5.80;1.60;;;17.90;47.40;;;;;;4989004;28;98625;-70
2022/01/28 06:13:46;;;;;;;7.57;1.70;;;17.90;47.50;;;;;;4988092;28;100528;-68
2022/01/28 06:16:14;;;;;;;4.72;1.48;;;17.80;47.50;;;;;;4987950;28;99119;-70
2022/01/28 06:18:40;;;;;;;7.45;1.83;;;17.90;47.60;;;;;;4988368;28;99098;-68
2022/01/28 06:21:05;;;;;;;6.70;1.60;;;17.80;47.60;;;;;;4970307;28;99304;-69
2022/01/28 06:23:32;;;;;;;4.18;1.40;;;17.80;47.60;;;;;;4988332;28;99213;-68
2022/01/28 06:25:57;;;;;;;4.32;1.40;;;17.80;47.70;;;;;;4987998;28;99011;-68
2022/01/28 06:28:23;;;;;;;5.70;1.52;;;17.80;47.80;;;;;;4988221;28;99800;-68
2022/01/28 06:30:50;;;;;;;4.55;1.40;;;17.80;47.90;;;;;;4988242;28;99099;-68
2022/01/28 06:33:16;;;;;;;4.80;1.52;;;17.70;47.90;;;;;;4987825;28;99619;-68
2022/01/28 06:35:42;;;;;;;6.82;2.15;;;17.70;48.10;;;;;;4987574;28;99855;-70
2022/01/28 06:38:08;;;;;;;7.70;1.48;;;17.70;48.40;;;;;;4987343;28;98584;-69
2022/01/28 06:40:33;;;;;;;7.32;1.63;;;17.60;48.60;;;;;;4987327;28;98703;-69
2022/01/28 06:42:59;;;;;;;10.18;2.35;;;17.60;48.30;;;;;;4995859;28;100110;-69
2022/01/28 06:45:25;;;;;;;4.20;1.55;;;17.60;48.50;;;;;;5006338;28;99446;-68
2022/01/28 06:47:50;;;;;;;8.55;1.88;;;17.60;48.30;;;;;;5006626;28;98899;-68
2022/01/28 06:50:16;;;;;;;4.53;1.55;;;17.60;48.30;;;;;;5007800;28;98909;-68
2022/01/28 06:52:42;;;;;;;6.07;1.90;;;17.50;48.20;;;;;;5006295;28;99962;-68
2022/01/28 06:55:10;;;;;;;8.70;1.80;;;17.50;48.30;;;;;;5007193;28;101494;-68
2022/01/28 06:57:35;;;;;;;5.57;1.60;;;17.50;48.50;;;;;;5006968;28;99561;-67
2022/01/28 07:00:03;;;;;;;5.80;1.83;;;17.40;48.50;;;;;;5007875;28;98789;-68
2022/01/28 07:02:29;;;;;;;9.27;2.10;;;17.40;48.50;;;;;;5006149;28;99211;-68
2022/01/28 07:04:55;;;;;;;7.28;1.65;;;17.40;48.80;;;;;;5006781;28;99210;-67
2022/01/28 07:07:22;;;;;;;7.47;1.70;;;17.40;48.90;;;;;;5006781;28;98709;-68
2022/01/28 07:09:48;;;;;;;5.97;1.50;;;17.30;49.10;;;;;;5006111;28;97999;-67
2022/01/28 07:12:15;;;;;;;9.73;1.98;;;17.30;49.30;;;;;;5006279;28;99189;-67
2022/01/28 07:14:41;;;;;;;8.93;1.85;;;17.30;49.50;;;;;;5006164;28;99937;-66
2022/01/28 07:17:06;;;;;;;6.57;1.98;;;17.20;49.60;;;;;;5006368;28;99710;-67
2022/01/28 07:19:32;;;;;;;11.05;2.33;;;17.20;49.80;;;;;;5007004;28;98638;-66
2022/01/28 07:21:58;;;;;;;11.35;2.50;;;17.20;49.80;;;;;;5006070;28;99997;-67
2022/01/28 07:24:24;;;;;;;10.82;2.30;;;17.20;49.80;;;;;;4988717;28;100724;-66
2022/01/28 07:26:50;;;;;;;7.43;1.95;;;17.20;49.70;;;;;;5008183;28;98804;-66
2022/01/28 07:29:16;;;;;;;10.00;2.00;;;17.10;49.60;;;;;;5009962;28;98522;-66
2022/01/28 07:31:42;;;;;;;11.68;2.47;;;17.10;49.70;;;;;;5011892;28;100189;-66
2022/01/28 07:34:08;;;;;;;8.32;2.03;;;17.10;49.60;;;;;;5009431;28;98426;-66
2022/01/28 07:36:34;;;;;;;11.02;2.00;;;17.10;49.50;;;;;;5008017;28;98992;-67
2022/01/28 07:39:00;;;;;;;9.40;2.30;;;17.10;49.30;;;;;;5008644;28;98570;-66
2022/01/28 07:41:26;;;;;;;9.52;2.20;;;17.10;49.20;;;;;;5010124;28;101035;-66
2022/01/28 07:43:52;;;;;;;6.38;2.10;;;17.00;49.00;;;;;;5008596;28;100664;-66
2022/01/28 07:46:18;;;;;;;9.63;2.03;;;17.00;48.90;;;;;;5010160;28;99145;-67
2022/01/28 07:48:44;;;;;;;10.50;2.50;;;17.00;48.80;;;;;;5010235;28;98987;-66
2022/01/28 07:51:09;;;;;;;9.50;2.10;;;17.00;48.60;;;;;;5009910;28;99938;-66
2022/01/28 07:53:35;;;;;;;7.05;1.90;;;17.00;48.60;;;;;;5009380;28;99561;-66
2022/01/28 07:56:00;;;;;;;9.15;2.60;;;17.00;48.50;;;;;;5010333;28;98699;-66
2022/01/28 07:58:26;;;;;;;7.47;2.22;;;17.00;48.40;;;;;;5009858;28;97889;-66
2022/01/28 08:00:52;;;;;;;6.60;2.25;;;17.00;48.30;;;;;;4990890;28;100545;-66
2022/01/28 08:03:17;;;;;;;7.40;2.17;;;17.00;48.00;;;;;;5008971;28;99858;-66
2022/01/28 08:05:43;;;;;;;6.60;2.33;;;17.00;47.90;;;;;;5009066;28;99652;-66
2022/01/28 08:08:12;;;;;;;6.32;2.25;;;17.00;47.80;;;;;;5009898;28;99169;-66
2022/01/28 08:10:38;;;;;;;9.90;2.65;;;17.10;47.80;;;;;;5008744;28;100800;-66
2022/01/28 08:13:05;;;;;;;7.13;2.30;;;17.10;47.70;;;;;;5009199;28;99272;-67
2022/01/28 08:15:31;;;;;;;9.27;2.30;;;17.10;47.50;;;;;;5009468;28;98576;-66
2022/01/28 08:17:57;;;;;;;7.93;2.45;;;17.10;47.40;;;;;;5009158;28;98658;-66
2022/01/28 08:20:23;;;;;;;7.03;2.15;;;17.20;47.30;;;;;;5009535;28;99179;-66
2022/01/28 08:22:57;;;;;;;9.43;2.72;;;17.20;47.20;;;;;;5009284;28;99520;-66
2022/01/28 08:25:24;;;;;;;9.30;2.75;;;17.20;47.10;;;;;;5009691;28;98673;-66
2022/01/28 08:27:51;;;;;;;7.50;2.30;;;17.20;46.90;;;;;;5009174;28;98620;-66
2022/01/28 08:30:24;;;;;;;8.55;2.30;;;17.30;46.90;;;;;;5007642;28;100057;-66
2022/01/28 08:32:52;;;;;;;8.93;2.30;;;17.30;46.70;;;;;;5007985;28;99963;-67
2022/01/28 08:35:23;;;;;;;8.10;2.35;;;17.30;46.60;;;;;;5009207;28;99056;-66
2022/01/28 08:37:49;;;;;;;10.32;2.38;;;17.30;46.50;;;;;;5009090;28;98660;-66
2022/01/28 08:40:16;;;;;;;6.78;2.15;;;17.30;46.50;;;;;;5007937;28;100501;-66
2022/01/28 08:42:42;;;;;;;7.95;2.40;;;17.30;46.50;;;;;;5008729;28;99923;-66
2022/01/28 08:45:08;;;;;;;7.40;2.38;;;17.40;47.40;;;;;;4987305;28;98872;-66
2022/01/28 08:47:34;;;;;;;8.07;2.38;;;17.40;46.30;;;;;;4989416;28;98344;-66
2022/01/28 08:49:59;;;;;;;5.95;2.38;;;17.40;46.30;;;;;;4987317;28;99798;-66
2022/01/28 08:52:25;;;;;;;8.85;2.10;;;17.40;46.30;;;;;;4988754;28;99022;-65
2022/01/28 08:54:51;;;;;;;7.13;2.25;;;17.40;46.30;;;;;;4988807;28;99453;-66
2022/01/28 08:57:17;;;;;;;8.95;2.83;;;17.50;46.20;;;;;;4989270;28;98980;-66
2022/01/28 08:59:44;;;;;;;8.10;2.65;;;17.50;46.00;;;;;;4988950;28;99008;-66
2022/01/28 09:02:10;;;;;;;7.65;2.95;;;17.50;46.00;;;;;;4987548;28;99038;-66
2022/01/28 09:04:36;;;;;;;6.22;2.30;;;17.50;45.90;;;;;;4989195;28;98963;-65
2022/01/28 09:07:02;;;;;;;5.70;2.33;;;17.50;45.90;;;;;;4988716;28;99024;-66
2022/01/28 09:09:30;;;;;;;8.93;2.70;;;17.50;45.90;;;;;;4988805;28;100090;-65
2022/01/28 09:14:22;;;;;;;8.98;2.20;;;17.50;45.90;;;;;;4989042;28;99265;-67
2022/01/28 09:16:49;;;;;;;8.52;2.70;;;17.50;45.90;;;;;;4993670;28;98689;-66
2022/01/28 09:19:15;;;;;;;6.10;2.22;;;17.50;45.90;;;;;;4990719;28;100849;-67
2022/01/28 09:21:41;;;;;;;8.85;2.70;;;17.60;46.00;;;;;;4988105;28;100448;-67
2022/01/28 09:24:07;;;;;;;5.57;2.30;;;17.60;46.00;;;;;;4988551;28;99009;-65
2022/01/28 09:26:33;;;;;;;7.13;2.40;;;17.60;45.90;;;;;;4987946;28;98818;-67
2022/01/28 09:28:58;;;;;;;6.65;2.50;;;17.60;45.90;;;;;;4987789;28;99361;-66
2022/01/28 09:31:24;;;;;;;9.80;2.58;;;17.60;45.90;;;;;;4987741;28;99347;-67
2022/01/28 09:33:49;;;;;;;7.25;2.85;;;17.70;45.90;;;;;;4988695;28;98862;-67
2022/01/28 09:36:16;;;;;;;8.20;2.65;;;17.70;45.80;;;;;;4989010;28;97919;-66
2022/01/28 09:38:42;;;;;;;8.85;2.70;;;17.70;45.80;;;;;;4987854;28;109501;-67
2022/01/28 09:41:09;;;;;;;8.55;3.10;;;17.70;46.00;;;;;;4988848;28;99847;-66
2022/01/28 09:43:35;;;;;;;9.23;3.50;;;17.80;45.70;;;;;;4990338;28;99919;-66
2022/01/28 09:46:03;;;;;;;9.52;3.17;;;17.80;45.50;;;;;;5009085;28;99104;-67
2022/01/28 09:48:29;;;;;;;12.15;3.60;;;17.80;45.50;;;;;;5007549;28;99331;-66
2022/01/28 09:50:59;;;;;;;8.68;3.13;;;17.80;45.40;;;;;;5007198;28;100914;-67
2022/01/28 09:53:24;;;;;;;10.38;3.42;;;17.80;45.40;;;;;;5007488;28;98636;-67
2022/01/28 09:55:50;;;;;;;10.48;3.30;;;17.80;45.40;;;;;;5006596;28;98631;-67
2022/01/28 09:58:16;;;;;;;8.63;2.90;;;17.80;45.40;;;;;;5007576;28;99240;-67
2022/01/28 10:00:42;;;;;;;9.07;3.67;;;17.80;45.50;;;;;;5007686;28;98603;-67
2022/01/28 10:03:10;;;;;;;8.82;3.10;;;17.70;45.40;;;;;;5007919;28;98976;-67
2022/01/28 10:05:57;;;;;;;8.13;3.28;;;17.70;45.40;;;;;;5008091;28;98625;-65
2022/01/28 10:08:24;;;;;;;11.60;3.38;;;17.70;45.40;;;;;;5007261;28;99949;-67
2022/01/28 10:11:08;;;;;;;10.40;3.90;;;17.70;45.50;;;;;;5007111;28;100834;-67
2022/01/28 10:16:16;;;;;;;8.93;2.90;;;17.70;45.60;;;;;;5006998;28;99173;-67
2022/01/28 10:18:45;;;;;;;7.68;3.03;;;17.80;45.50;;;;;;5006245;28;100420;-67
2022/01/28 10:21:25;;;;;;;8.98;3.30;;;17.90;45.40;;;;;;5006890;28;98820;-67
2022/01/28 10:24:17;;;;;;;9.68;3.17;;;18.00;45.10;;;;;;5007562;28;99066;-67
2022/01/28 10:27:09;;;;;;;8.50;3.10;;;18.10;45.00;;;;;;4992513;28;98090;-65
2022/01/28 10:29:37;;;;;;;7.30;3.00;;;18.20;45.00;;;;;;5006342;28;100747;-66
2022/01/28 10:32:11;;;;;;;8.05;2.97;;;18.30;44.70;;;;;;5005836;28;99580;-67
2022/01/28 10:34:45;;;;;;;9.10;2.90;;;18.40;44.40;;;;;;5006419;28;99381;-67
2022/01/28 10:37:29;;;;;;;8.60;2.90;;;18.50;44.30;;;;;;5006741;28;98827;-67
2022/01/28 10:40:09;;;;;;;7.40;3.05;;;18.50;44.10;;;;;;5006512;28;99164;-66
2022/01/28 10:42:43;;;;;;;6.32;2.60;;;18.60;44.10;;;;;;5005859;28;99849;-67
2022/01/28 10:45:14;;;;;;;9.30;2.95;;;18.70;44.00;;;;;;5006006;28;98992;-67
2022/01/28 10:47:40;;;;;;;8.75;2.97;;;18.70;43.70;;;;;;5006455;28;99247;-67
2022/01/28 10:50:29;;;;;;;9.18;2.70;;;18.80;43.70;;;;;;5005920;28;100060;-67
2022/01/28 10:53:07;;;;;;;8.05;2.63;;;18.80;43.60;;;;;;5005653;28;99934;-67
2022/01/28 10:55:36;;;;;;;10.98;2.90;;;18.80;43.60;;;;;;5006147;28;99048;-67
2022/01/28 10:58:07;;;;;;;10.98;2.70;;;18.80;43.60;;;;;;5006672;28;99123;-68
2022/01/28 11:00:41;;;;;;;11.57;2.92;;;18.80;43.60;;;;;;5006584;28;99698;-67
2022/01/28 11:03:10;;;;;;;9.88;2.70;;;18.80;43.60;;;;;;5009503;28;100575;-68
2022/01/28 11:05:37;;;;;;;8.80;2.70;;;18.70;43.60;;;;;;5011159;28;99195;-67
2022/01/28 11:08:11;;;;;;;9.40;2.80;;;18.80;43.60;;;;;;5010070;28;98594;-66
2022/01/28 11:10:37;;;;;;;8.27;2.75;;;18.80;43.50;;;;;;5006645;28;101175;-67
2022/01/28 11:13:03;;;;;;;7.65;2.45;;;18.80;43.60;;;;;;5006757;28;99965;-67
2022/01/28 11:15:29;;;;;;;9.88;2.67;;;18.80;43.50;;;;;;5009946;28;99146;-67
2022/01/28 11:17:58;;;;;;;9.25;2.53;;;18.80;43.40;;;;;;5010104;28;97861;-67
2022/01/28 11:20:30;;;;;;;7.20;2.50;;;18.80;43.30;;;;;;4992042;28;100099;-67
2022/01/28 11:23:14;;;;;;;6.90;2.53;;;18.90;43.30;;;;;;5010555;28;99149;-67
2022/01/28 11:25:49;;;;;;;9.05;2.72;;;18.90;43.20;;;;;;5009551;28;100663;-67
2022/01/28 11:28:15;;;;;;;6.80;1.95;;;19.00;43.10;;;;;;5010162;28;99074;-67
2022/01/28 11:30:51;;;;;;;7.43;2.45;;;19.00;43.10;;;;;;5009085;28;100297;-66
2022/01/28 11:33:18;;;;;;;10.25;2.67;;;19.00;42.90;;;;;;5009346;28;100015;-67
2022/01/28 11:35:49;;;;;;;4.93;1.98;;;19.10;42.90;;;;;;5009666;28;98677;-66
2022/01/28 11:38:27;;;;;;;10.35;2.28;;;19.10;42.80;;;;;;5009825;28;98950;-66
2022/01/28 11:40:52;;;;;;;10.73;2.47;;;19.10;42.70;;;;;;5009081;28;100130;-66
2022/01/28 11:43:23;;;;;;;13.82;4.93;;;19.10;42.80;;;;;;5009787;28;99847;-66
2022/01/28 11:46:14;;;;;;;11.82;6.65;;;19.10;43.00;;;;;;5009702;28;99085;-67
2022/01/28 11:48:52;;;;;;;15.60;7.65;;;19.10;43.30;;;;;;5009944;28;99010;-66
2022/01/28 11:51:20;;;;;;;13.13;6.78;;;19.00;43.60;;;;;;5008308;28;100974;-66
2022/01/28 11:54:00;;;;;;;14.77;6.63;;;19.00;43.90;;;;;;5010836;28;100898;-66
2022/01/28 11:56:28;;;;;;;12.18;5.97;;;19.00;43.90;;;;;;5009434;28;99026;-64
2022/01/28 11:58:58;;;;;;;12.75;6.30;;;19.00;43.80;;;;;;5010192;28;98994;-65
2022/01/28 12:01:45;;;;;;;12.55;5.20;;;19.00;43.80;;;;;;5008965;28;98993;-66
2022/01/28 12:04:31;;;;;;;13.60;5.30;;;19.00;43.70;;;;;;5008217;28;100174;-66
2022/01/28 12:07:09;;;;;;;10.23;4.68;;;19.00;43.70;;;;;;5008607;28;98664;-66
2022/01/28 12:09:37;;;;;;;11.85;4.53;;;19.10;43.60;;;;;;5009310;28;97900;-66
2022/01/28 12:12:05;;;;;;;10.68;4.20;;;19.10;43.60;;;;;;5009595;28;99165;-66
2022/01/28 12:15:10;;;;;;;15.60;4.43;;;19.20;43.50;;;;;;5009007;28;100302;-66
2022/01/28 12:17:39;;;;;;;9.70;3.80;;;19.30;43.40;;;;;;5009175;28;99270;-66
2022/01/28 12:20:24;;;;;;;12.70;4.05;;;19.20;43.40;;;;;;5009004;28;98637;-67
2022/01/28 12:23:11;;;;;;;9.07;3.50;;;19.30;43.20;;;;;;5008253;28;100496;-66
2022/01/28 12:25:36;;;;;;;9.13;3.53;;;19.30;43.10;;;;;;5006488;28;99956;-66
2022/01/28 12:28:18;;;;;;;10.32;3.63;;;19.40;43.10;;;;;;5008642;28;98644;-66
2022/01/28 12:30:49;;;;;;;9.98;3.60;;;19.40;43.00;;;;;;5008344;28;99126;-66
2022/01/28 12:33:21;;;;;;;8.00;2.83;;;19.40;43.00;;;;;;5008824;28;99249;-66
2022/01/28 12:35:50;;;;;;;9.55;3.00;;;19.40;43.00;;;;;;5008886;28;98649;-66
2022/01/28 12:38:20;;;;;;;10.23;3.15;;;19.40;43.00;;;;;;5008757;28;99165;-65
2022/01/28 12:40:49;;;;;;;9.93;2.75;;;19.40;43.00;;;;;;5009387;28;99892;-66
2022/01/28 12:43:23;;;;;;;7.03;3.00;;;19.40;42.90;;;;;;5008423;28;101818;-66
2022/01/28 12:46:03;;;;;;;6.13;2.72;;;19.50;42.80;;;;;;4970234;28;99538;-66
2022/01/28 12:48:35;;;;;;;8.50;2.53;;;19.50;43.30;;;;;;4953793;28;98629;-66
2022/01/28 12:51:02;;;;;;;10.43;2.78;;;19.50;42.80;;;;;;4972635;28;98987;-66
2022/01/28 12:53:39;;;;;;;8.05;2.50;;;19.60;42.80;;;;;;4970634;28;102845;-66
2022/01/28 12:56:07;;;;;;;6.30;2.47;;;19.60;42.60;;;;;;4970554;28;99959;-66
2022/01/28 12:58:35;;;;;;;7.07;2.30;;;19.60;42.50;;;;;;4969418;28;98779;-65
2022/01/28 13:01:11;;;;;;;7.68;2.50;;;19.70;42.50;;;;;;4969339;28;98189;-66
2022/01/28 13:03:52;;;;;;;8.13;3.03;;;19.70;42.40;;;;;;4968933;28;100265;-66
2022/01/28 13:09:09;;;;;;;6.18;2.40;;;19.60;42.50;;;;;;4967857;28;99883;-66
2022/01/28 13:11:44;;;;;;;8.18;2.00;;;19.60;42.60;;;;;;4968834;28;99066;-66
2022/01/28 13:14:12;;;;;;;9.25;2.20;;;19.60;42.60;;;;;;4967191;28;100333;-66
2022/01/28 13:16:42;;;;;;;7.10;2.05;;;19.70;42.70;;;;;;4967531;28;100051;-66
2022/01/28 13:19:10;;;;;;;9.32;2.60;;;19.70;42.50;;;;;;4968871;28;98789;-66
2022/01/28 13:21:37;;;;;;;8.13;2.30;;;19.70;42.40;;;;;;4968754;28;99280;-66
2022/01/28 13:24:13;;;;;;;7.25;1.90;;;19.80;42.40;;;;;;4968224;28;99093;-65
2022/01/28 13:26:53;;;;;;;5.75;1.88;;;19.70;42.30;;;;;;4968494;28;98892;-66
2022/01/28 13:29:35;;;;;;;8.52;2.00;;;19.70;42.40;;;;;;4968998;28;99146;-66
2022/01/28 13:32:13;;;;;;;6.22;2.13;;;19.70;42.40;;;;;;4967916;28;98868;-65
2022/01/28 13:34:50;;;;;;;5.47;1.63;;;19.60;42.50;;;;;;4967872;28;99754;-65
2022/01/28 13:37:39;;;;;;;5.75;2.10;;;19.60;42.60;;;;;;4967076;28;99372;-66
2022/01/28 13:40:10;;;;;;;6.70;2.25;;;19.50;42.70;;;;;;4966843;28;98628;-67
2022/01/28 13:42:55;;;;;;;7.45;2.03;;;19.50;42.80;;;;;;4967668;28;99605;-67
2022/01/28 13:45:36;;;;;;;6.85;1.65;;;19.50;42.90;;;;;;4983719;28;99132;-67
2022/01/28 13:48:32;;;;;;;5.55;1.70;;;19.40;42.90;;;;;;4987802;28;99025;-67
2022/01/28 13:51:09;;;;;;;6.25;1.77;;;19.30;43.00;;;;;;4979787;28;100425;-68
2022/01/28 13:56:43;;;;;;;6.00;1.80;;;19.20;43.30;;;;;;4986866;28;100122;-66
2022/01/28 13:59:14;;;;;;;7.68;1.88;;;19.20;43.50;;;;;;4986125;28;100196;-66
2022/01/28 14:01:49;;;;;;;5.15;1.80;;;19.10;43.80;;;;;;4987376;28;99692;-66
2022/01/28 14:04:23;;;;;;;6.25;1.90;;;19.10;44.00;;;;;;4988062;28;99023;-66
2022/01/28 14:06:49;;;;;;;8.02;1.45;;;19.20;44.40;;;;;;4987185;28;100296;-66
2022/01/28 14:09:19;;;;;;;8.63;1.77;;;19.20;44.60;;;;;;4986897;28;100179;-66
2022/01/28 14:11:49;;;;;;;7.43;1.70;;;19.30;45.00;;;;;;4987686;28;98957;-65
2022/01/28 14:14:25;;;;;;;6.82;1.95;;;19.30;45.10;;;;;;4987398;28;98575;-65
2022/01/28 14:16:55;;;;;;;6.28;1.70;;;19.40;45.30;;;;;;4986860;28;100146;-65
2022/01/28 14:19:22;;;;;;;10.32;2.17;;;19.40;45.30;;;;;;4986756;28;99312;-67
2022/01/28 14:21:48;;;;;;;4.20;1.88;;;19.40;45.40;;;;;;4986710;28;98665;-66
2022/01/28 14:24:22;;;;;;;6.18;1.70;;;19.40;45.60;;;;;;4986851;28;99133;-65
2022/01/28 14:27:11;;;;;;;6.15;1.67;;;19.40;45.60;;;;;;4986404;28;100204;-65
2022/01/28 14:32:18;;;;;;;5.45;1.45;;;19.40;46.10;;;;;;4987581;28;98697;-64
2022/01/28 14:34:45;;;;;;;6.53;1.67;;;19.40;46.00;;;;;;4988495;28;99651;-65
2022/01/28 14:37:11;;;;;;;5.22;1.42;;;19.50;46.10;;;;;;4988724;28;99379;-65
2022/01/28 14:39:40;;;;;;;5.80;1.52;;;19.50;46.00;;;;;;4990707;28;99131;-65
2022/01/28 14:42:07;;;;;;;7.22;1.70;;;19.60;46.20;;;;;;4987615;28;98906;-66
2022/01/28 14:44:36;;;;;;;6.28;1.55;;;19.60;46.20;;;;;;4999211;28;97923;-65
2022/01/28 14:47:02;;;;;;;6.13;1.63;;;19.60;46.10;;;;;;5007732;28;99736;-67
2022/01/28 14:49:28;;;;;;;5.25;1.60;;;19.50;46.30;;;;;;5005690;28;99764;-65
2022/01/28 14:51:59;;;;;;;7.70;1.80;;;19.50;46.30;;;;;;5006218;28;99875;-69
2022/01/28 14:54:28;;;;;;;6.22;1.65;;;19.60;46.40;;;;;;5007090;28;98971;-66
2022/01/28 14:56:58;;;;;;;7.40;1.58;;;19.60;46.50;;;;;;5006218;28;99357;-66
2022/01/28 14:59:24;;;;;;;7.75;1.58;;;19.60;46.30;;;;;;5006505;28;101816;-67
2022/01/28 15:01:51;;;;;;;7.32;1.83;;;19.70;46.10;;;;;;5005950;28;98959;-67
2022/01/28 15:04:17;;;;;;;19.33;2.28;;;19.70;46.00;;;;;;5007744;28;98625;-67
2022/01/28 15:06:46;;;;;;;13.25;1.95;;;19.70;46.10;;;;;;5006948;28;101192;-68
2022/01/28 15:09:14;;;;;;;8.68;2.40;;;19.60;46.10;;;;;;5007476;28;99992;-68
2022/01/28 15:11:47;;;;;;;18.50;2.60;;;19.60;46.20;;;;;;5006357;28;99218;-67
2022/01/28 15:14:14;;;;;;;11.50;2.17;;;19.50;46.30;;;;;;5007359;28;98861;-68
2022/01/28 15:16:40;;;;;;;16.55;2.53;;;19.50;46.60;;;;;;5006661;28;99995;-68
2022/01/28 15:19:07;;;;;;;11.27;1.95;;;19.40;46.60;;;;;;5007119;28;99333;-67
2022/01/28 15:21:33;;;;;;;8.55;1.92;;;19.40;46.80;;;;;;5007216;28;99001;-68
2022/01/28 15:23:59;;;;;;;11.95;2.30;;;19.30;46.80;;;;;;5006305;28;98680;-68
2022/01/28 15:26:25;;;;;;;11.80;2.20;;;19.30;47.00;;;;;;5006769;28;100174;-67
2022/01/28 15:29:01;;;;;;;10.80;2.28;;;19.30;47.00;;;;;;5005937;28;110013;-67
2022/01/28 15:36:56;;;;;;;9.02;1.88;;;19.20;47.20;;;;;;5006507;28;99680;-67
2022/01/28 15:39:22;;;;;;;8.73;1.52;;;19.20;47.10;;;;;;5006235;28;99764;-66
2022/01/28 15:41:47;;;;;;;9.07;1.80;;;19.30;47.00;;;;;;5006813;28;99437;-67
2022/01/28 15:44:13;;;;;;;8.02;2.03;;;19.30;47.00;;;;;;5004815;28;99778;-67